Etusivu
METAR-TAF:

METAR-TAF

Lentoasemat :

Roskilde, Tanska

Leveyspiiri: 55-35N, Pituuspiiri: 012-08E, korkeus merenpinnasta: 44 m

Tämänhetkinen sää

Tämä raportti tehtiin 38 minuuttia sitten, kello 22.50 UTC
Tuuli 17 kn idästä
Lämpötila 6°C
Kosteus 70%
Ilmanpaine 1024 hPa
Näkyvyys 10 km tai enemmän

METAR: EKRK 202250Z AUTO 10017KT 9999NDV BKN024/// BKN030/// 06/01 Q1024

Aika: 00:28 (23:28 UTC)

Sääennuste

Tämä raportti tehtiin 3 tuntia ja 23 minuuttia sitten, kello 20.05 UTC
Ennuste voimassa 20. päivästä klo 21 UTC - 21. päivään klo 06 UTC
Tuuli 15 kn idästä
Näkyvyys 10 km tai enemmän
Hajonneita pilviä 2000 ft:n korkeudessa

TAF: EKRK 202005Z 2021/2106 09015KT 9999 BKN020

Säähavainnot ja -ennusteet yli 4000 lentoasemalta (METAR- ja TAF-raportit).

Käytössä olevat sääasemat on merkitty karttaan keltaisilla ja punaisilla pisteillä.

Aseta hiiri pisteen päälle nähdäksesi sääaseman nimen.

Klikkaa sitten nähdäksesi säähavainnot ja -ennusteet.

Kartan vaihtaminen: klikkaa mustalla rastilla varustettuja vihreitä pisteitä, niin voit zoomata sisään; viivalla varustettua vihreää pistettä, niin voit zoomata ulos tai vihreitä nuolia, niin pääset viereisille kartoille.


METAR-TAF: